createdAt,value
2023-01-19T00:00:57.306Z,90.21
2023-01-19T00:03:24.445Z,90.70
2023-01-19T00:05:52.515Z,90.90
2023-01-19T00:08:19.635Z,90.98
2023-01-19T00:10:53.184Z,90.67
2023-01-19T00:13:21.431Z,90.76
2023-01-19T00:15:48.489Z,89.30
2023-01-19T00:18:15.958Z,89.76
2023-01-19T00:20:46.022Z,90.49
2023-01-19T00:23:14.493Z,91.22
2023-01-19T00:25:43.561Z,91.24
2023-01-19T00:28:14.648Z,91.13
2023-01-19T00:30:42.526Z,91.90
2023-01-19T00:33:14.399Z,91.42
2023-01-19T00:35:42.662Z,90.77
2023-01-19T00:38:11.859Z,90.96
2023-01-19T00:40:38.916Z,90.73
2023-01-19T00:43:06.083Z,90.29
2023-01-19T00:45:34.048Z,89.14
2023-01-19T00:48:01.334Z,89.43
2023-01-19T00:50:31.481Z,88.55
2023-01-19T00:53:02.459Z,88.81
2023-01-19T00:55:32.675Z,88.79
2023-01-19T00:57:59.895Z,89.02
2023-01-19T01:00:26.967Z,88.70
2023-01-19T01:02:54.525Z,89.79
2023-01-19T01:05:22.358Z,89.71
2023-01-19T01:07:50.536Z,90.51
2023-01-19T01:10:26.047Z,90.06
2023-01-19T01:12:57.562Z,89.73
2023-01-19T01:15:27.148Z,90.04
2023-01-19T01:17:55.297Z,90.26
2023-01-19T01:20:30.138Z,91.49
2023-01-19T01:22:57.805Z,91.13
2023-01-19T01:25:27.726Z,90.94
2023-01-19T01:27:55.513Z,90.72
2023-01-19T01:30:22.862Z,91.39
2023-01-19T01:32:50.114Z,91.52
2023-01-19T01:35:17.612Z,92.03
2023-01-19T01:37:44.734Z,90.94
2023-01-19T01:40:17.451Z,91.01
2023-01-19T01:42:45.379Z,91.35
2023-01-19T01:45:39.463Z,90.74
2023-01-19T01:48:14.036Z,90.51
2023-01-19T01:51:08.389Z,90.26
2023-01-19T01:53:38.534Z,89.61
2023-01-19T01:56:12.191Z,89.69
2023-01-19T01:58:40.068Z,89.67
2023-01-19T02:01:29.318Z,89.14
2023-01-19T02:03:57.712Z,89.24
2023-01-19T02:06:25.715Z,88.46
2023-01-19T02:09:29.003Z,90.19
2023-01-19T02:12:15.173Z,90.40
2023-01-19T02:14:42.216Z,90.71
2023-01-19T02:17:09.271Z,91.78
2023-01-19T02:19:43.616Z,92.02
2023-01-19T02:22:23.126Z,91.78
2023-01-19T02:24:50.352Z,91.20
2023-01-19T02:27:17.629Z,91.61
2023-01-19T02:29:44.911Z,91.31
2023-01-19T02:32:12.808Z,90.11
2023-01-19T02:34:39.975Z,91.66
2023-01-19T02:37:17.212Z,90.09
2023-01-19T02:39:56.253Z,90.05
2023-01-19T02:42:39.075Z,90.87
2023-01-19T02:45:09.384Z,91.41
2023-01-19T02:47:52.984Z,91.53
2023-01-19T02:50:49.154Z,90.04
2023-01-19T02:53:47.469Z,91.57
2023-01-19T02:56:53.824Z,91.92
2023-01-19T03:00:02.686Z,92.54
2023-01-19T03:02:55.098Z,90.80
2023-01-19T03:05:43.532Z,90.62
2023-01-19T03:08:59.541Z,89.88
2023-01-19T03:11:38.477Z,90.45
2023-01-19T03:14:18.410Z,91.12
2023-01-19T03:16:57.453Z,90.82
2023-01-19T03:19:42.722Z,92.09
2023-01-19T03:22:29.825Z,91.81
2023-01-19T03:25:01.548Z,91.57
2023-01-19T03:27:40.846Z,91.37
2023-01-19T03:30:22.379Z,91.95
2023-01-19T03:33:03.240Z,91.78
2023-01-19T03:35:35.655Z,92.20
2023-01-19T03:38:09.553Z,92.21
2023-01-19T03:40:40.097Z,92.36
2023-01-19T03:43:09.806Z,91.61
2023-01-19T03:45:39.060Z,91.21
2023-01-19T03:48:07.663Z,90.31
2023-01-19T03:50:34.790Z,91.20
2023-01-19T03:53:14.416Z,91.75
2023-01-19T03:55:47.063Z,91.48
2023-01-19T03:58:14.310Z,91.96
2023-01-19T04:00:41.513Z,92.15
2023-01-19T04:03:16.713Z,92.14
2023-01-19T04:05:44.718Z,91.37
2023-01-19T04:08:12.989Z,91.11
2023-01-19T04:10:40.232Z,91.54
2023-01-19T04:13:07.294Z,91.74
2023-01-19T04:15:34.490Z,91.97
2023-01-19T04:18:01.753Z,91.64
2023-01-19T04:20:30.563Z,91.68
2023-01-19T04:23:02.165Z,91.67
2023-01-19T04:25:29.657Z,91.06
2023-01-19T04:28:00.105Z,91.92
2023-01-19T04:30:27.900Z,91.50
2023-01-19T04:32:56.243Z,91.97
2023-01-19T04:35:23.755Z,91.54
2023-01-19T04:37:50.811Z,91.17
2023-01-19T04:40:18.100Z,91.17
2023-01-19T04:42:46.215Z,90.57
2023-01-19T04:45:14.698Z,91.13
2023-01-19T04:47:44.406Z,90.33
2023-01-19T04:50:12.237Z,91.05
2023-01-19T04:52:39.300Z,91.39
2023-01-19T04:55:08.020Z,91.77
2023-01-19T04:57:35.033Z,91.85
2023-01-19T05:00:02.933Z,91.46
2023-01-19T05:02:30.031Z,91.33
2023-01-19T05:04:57.145Z,92.14
2023-01-19T05:07:24.327Z,91.82
2023-01-19T05:09:51.335Z,92.12
2023-01-19T05:12:18.302Z,91.56
2023-01-19T05:14:45.412Z,91.97
2023-01-19T05:17:13.835Z,91.57
2023-01-19T05:19:40.967Z,91.16
2023-01-19T05:22:08.350Z,90.66
2023-01-19T05:24:35.654Z,91.48
2023-01-19T05:27:02.787Z,91.25
2023-01-19T05:29:29.809Z,91.47
2023-01-19T05:31:58.091Z,91.14
2023-01-19T05:34:25.390Z,92.33
2023-01-19T05:36:55.193Z,92.26
2023-01-19T05:39:22.227Z,92.27
2023-01-19T05:41:49.299Z,91.68
2023-01-19T05:44:16.290Z,91.05
2023-01-19T05:46:43.314Z,91.32
2023-01-19T05:49:12.156Z,91.22
2023-01-19T05:51:40.536Z,90.48
2023-01-19T05:54:08.587Z,90.88
2023-01-19T05:56:36.102Z,90.96
2023-01-19T05:59:03.161Z,91.65
2023-01-19T06:01:36.516Z,91.25
2023-01-19T06:04:05.640Z,91.33
2023-01-19T06:06:32.727Z,90.44
2023-01-19T06:08:59.774Z,90.68
2023-01-19T06:11:26.867Z,90.45
2023-01-19T06:13:53.997Z,90.65
2023-01-19T06:16:21.363Z,90.47
2023-01-19T06:18:48.366Z,90.93
2023-01-19T06:21:15.510Z,90.02
2023-01-19T06:23:42.548Z,91.19
2023-01-19T06:26:10.077Z,91.25
2023-01-19T06:28:39.364Z,90.52
2023-01-19T06:31:06.607Z,90.05
2023-01-19T06:33:33.628Z,90.36
2023-01-19T06:36:00.817Z,91.40
2023-01-19T06:38:28.581Z,90.63
2023-01-19T06:41:03.054Z,90.65
2023-01-19T06:43:31.682Z,90.85
2023-01-19T06:46:00.870Z,90.40
2023-01-19T06:48:30.366Z,90.37
2023-01-19T06:50:59.602Z,90.91
2023-01-19T06:53:28.262Z,90.90
2023-01-19T06:56:01.376Z,90.72
2023-01-19T06:58:31.086Z,91.40
2023-01-19T07:01:06.638Z,91.15
2023-01-19T07:03:35.475Z,91.00
2023-01-19T07:06:02.989Z,91.43
2023-01-19T07:08:30.189Z,91.52
2023-01-19T07:11:26.361Z,91.16
2023-01-19T07:13:59.693Z,90.59
2023-01-19T07:16:26.894Z,90.64
2023-01-19T07:18:54.173Z,91.34
2023-01-19T07:21:21.823Z,90.67
2023-01-19T07:23:51.840Z,91.12
2023-01-19T07:26:21.212Z,91.07
2023-01-19T07:28:48.946Z,90.43
2023-01-19T07:31:19.260Z,91.19
2023-01-19T07:33:47.061Z,90.55
2023-01-19T07:36:14.407Z,90.80
2023-01-19T07:38:42.851Z,90.21
2023-01-19T07:41:10.953Z,89.64
2023-01-19T07:43:38.353Z,88.70
2023-01-19T07:46:08.060Z,88.99
2023-01-19T07:48:36.795Z,89.71
2023-01-19T07:51:06.291Z,89.66
2023-01-19T07:53:33.303Z,89.76
2023-01-19T07:56:00.609Z,89.67
2023-01-19T07:58:27.848Z,88.99
2023-01-19T08:00:55.174Z,89.03
2023-01-19T08:03:24.368Z,89.43
2023-01-19T08:05:56.963Z,88.70
2023-01-19T08:08:23.996Z,89.46
2023-01-19T08:10:52.439Z,89.97
2023-01-19T08:13:20.155Z,90.13
2023-01-19T08:15:52.543Z,89.49
2023-01-19T08:18:20.557Z,88.85
2023-01-19T08:20:47.982Z,89.42
2023-01-19T08:23:15.178Z,88.62
2023-01-19T08:25:45.137Z,88.55
2023-01-19T08:28:17.162Z,89.27
2023-01-19T08:30:45.570Z,88.54
2023-01-19T08:33:13.813Z,88.20
2023-01-19T08:35:44.097Z,88.34
2023-01-19T08:38:11.600Z,88.24
2023-01-19T08:40:41.893Z,88.58
2023-01-19T08:43:16.306Z,87.25
2023-01-19T08:45:52.368Z,87.73
2023-01-19T08:48:22.715Z,87.72
2023-01-19T08:50:51.764Z,87.25
2023-01-19T08:53:21.238Z,87.55
2023-01-19T08:55:48.335Z,87.46
2023-01-19T08:58:16.129Z,87.35
2023-01-19T09:00:46.030Z,87.45
2023-01-19T09:03:13.934Z,86.45
2023-01-19T09:05:41.061Z,86.84
2023-01-19T09:08:13.245Z,86.53
2023-01-19T09:10:51.004Z,87.02
2023-01-19T09:13:20.176Z,86.05
2023-01-19T09:15:50.144Z,85.86
2023-01-19T09:18:24.768Z,85.49
2023-01-19T09:20:51.810Z,86.21
2023-01-19T09:23:20.682Z,85.66
2023-01-19T09:25:49.179Z,85.33
2023-01-19T09:28:17.945Z,85.48
2023-01-19T09:30:45.751Z,84.98
2023-01-19T09:33:16.879Z,85.44
2023-01-19T09:35:46.739Z,85.42
2023-01-19T09:38:16.758Z,84.12
2023-01-19T09:40:53.473Z,84.29
2023-01-19T09:43:47.762Z,84.19
2023-01-19T09:46:25.567Z,83.42
2023-01-19T09:48:59.034Z,83.06
2023-01-19T09:51:35.123Z,83.04
2023-01-19T09:54:20.859Z,82.98
2023-01-19T09:56:52.705Z,82.17
2023-01-19T09:59:32.974Z,82.14
2023-01-19T10:02:28.997Z,81.67
2023-01-19T10:05:22.574Z,82.21
2023-01-19T10:08:08.272Z,82.12
2023-01-19T10:10:40.436Z,81.42
2023-01-19T10:13:47.022Z,81.47
2023-01-19T10:16:56.951Z,81.45
2023-01-19T10:19:32.715Z,80.78
2023-01-19T10:22:35.893Z,81.35
2023-01-19T10:25:14.027Z,82.13
2023-01-19T10:27:42.823Z,82.13
2023-01-19T10:30:27.718Z,81.58
2023-01-19T10:32:55.259Z,81.35
2023-01-19T10:35:25.075Z,80.60
2023-01-19T10:38:01.371Z,81.19
2023-01-19T10:40:57.371Z,81.24
2023-01-19T10:43:44.897Z,81.20
2023-01-19T10:46:31.267Z,80.80
2023-01-19T10:48:58.456Z,80.44
2023-01-19T10:51:27.284Z,80.14
2023-01-19T10:54:13.859Z,79.74
2023-01-19T10:56:42.192Z,79.67
2023-01-19T10:59:44.220Z,79.36
2023-01-19T11:02:23.581Z,79.74
2023-01-19T11:04:59.467Z,78.69
2023-01-19T11:07:26.281Z,79.92
2023-01-19T11:10:20.775Z,79.15
2023-01-19T11:13:01.255Z,79.07
2023-01-19T11:15:58.991Z,79.09
2023-01-19T11:18:37.519Z,79.13
2023-01-19T11:21:16.605Z,79.42
2023-01-19T11:23:56.305Z,79.41
2023-01-19T11:26:38.987Z,78.94
2023-01-19T11:29:06.474Z,78.60
2023-01-19T11:31:37.948Z,78.94
2023-01-19T11:34:38.637Z,79.62
2023-01-19T11:37:18.527Z,78.62
2023-01-19T11:39:48.136Z,78.61
2023-01-19T11:42:16.868Z,78.83
2023-01-19T11:44:58.530Z,78.95
2023-01-19T11:47:46.036Z,78.58
2023-01-19T11:50:27.474Z,78.49
2023-01-19T11:53:13.065Z,78.03
2023-01-19T11:56:08.233Z,78.59
2023-01-19T11:58:41.506Z,78.05
2023-01-19T12:01:30.190Z,77.95
2023-01-19T12:04:14.193Z,77.96
2023-01-19T12:06:55.216Z,77.75
2023-01-19T12:09:46.381Z,78.13
2023-01-19T12:12:40.065Z,77.89
2023-01-19T12:15:47.804Z,78.02
2023-01-19T12:18:26.915Z,77.56
2023-01-19T12:20:56.317Z,79.02
2023-01-19T12:24:07.823Z,79.91
2023-01-19T12:26:59.014Z,79.80
2023-01-19T12:29:33.713Z,78.96
2023-01-19T12:32:20.200Z,78.07
2023-01-19T12:34:55.775Z,79.01
2023-01-19T12:37:39.551Z,79.16
2023-01-19T12:40:31.275Z,78.46
2023-01-19T12:43:05.285Z,77.99
2023-01-19T12:45:39.854Z,77.73
2023-01-19T12:48:25.980Z,78.53
2023-01-19T12:50:53.098Z,77.73
2023-01-19T12:53:22.452Z,77.74
2023-01-19T12:56:01.962Z,78.00
2023-01-19T12:58:29.394Z,78.61
2023-01-19T13:01:21.416Z,78.59
2023-01-19T13:04:33.621Z,78.47
2023-01-19T13:07:10.586Z,78.51
2023-01-19T13:09:39.258Z,76.87
2023-01-19T13:12:15.078Z,77.50
2023-01-19T13:14:43.349Z,77.13
2023-01-19T13:17:48.980Z,77.30
2023-01-19T13:20:33.277Z,77.76
2023-01-19T13:23:25.087Z,78.68
2023-01-19T13:26:12.781Z,78.93
2023-01-19T13:28:49.663Z,79.40
2023-01-19T13:31:20.343Z,77.93
2023-01-19T13:33:59.866Z,78.22
2023-01-19T13:36:33.129Z,79.81
2023-01-19T13:39:06.398Z,79.18
2023-01-19T13:41:41.074Z,79.06
2023-01-19T13:44:18.196Z,78.10
2023-01-19T13:46:47.805Z,79.03
2023-01-19T13:49:43.968Z,78.66
2023-01-19T13:52:27.535Z,78.75
2023-01-19T13:55:05.437Z,80.02
2023-01-19T13:57:41.616Z,80.43
2023-01-19T14:00:12.187Z,80.63
2023-01-19T14:03:11.621Z,79.57
2023-01-19T14:05:42.339Z,80.28
2023-01-19T14:08:12.336Z,80.53
2023-01-19T14:11:01.085Z,81.75
2023-01-19T14:13:41.525Z,82.09
2023-01-19T14:16:17.897Z,82.24
2023-01-19T14:18:45.015Z,83.01
2023-01-19T14:21:15.804Z,82.60
2023-01-19T14:24:16.999Z,82.67
2023-01-19T14:26:53.671Z,82.46
2023-01-19T14:29:38.058Z,82.83
2023-01-19T14:32:09.819Z,83.00
2023-01-19T14:34:51.386Z,82.73
2023-01-19T14:37:29.430Z,83.02
2023-01-19T14:40:00.838Z,84.03
2023-01-19T14:42:37.192Z,83.67
2023-01-19T14:45:22.536Z,83.60
2023-01-19T14:48:19.586Z,83.65
2023-01-19T14:51:02.493Z,83.93
2023-01-19T14:53:38.999Z,84.17
2023-01-19T14:56:07.709Z,84.37
2023-01-19T14:58:36.210Z,84.40
2023-01-19T15:01:04.702Z,84.40
2023-01-19T15:03:44.688Z,84.69
2023-01-19T15:06:19.838Z,84.49
2023-01-19T15:08:53.175Z,84.31
2023-01-19T15:11:34.630Z,84.96
2023-01-19T15:14:02.417Z,85.27
2023-01-19T15:16:32.882Z,85.19
2023-01-19T15:19:00.688Z,85.64
2023-01-19T15:21:27.776Z,85.39
2023-01-19T15:23:55.802Z,85.47
2023-01-19T15:26:26.500Z,85.34
2023-01-19T15:28:55.840Z,85.40
2023-01-19T15:31:29.773Z,85.82
2023-01-19T15:33:56.986Z,85.80
2023-01-19T15:36:25.997Z,85.89
2023-01-19T15:38:53.082Z,85.56
2023-01-19T15:41:31.961Z,85.57
2023-01-19T15:43:59.567Z,85.34
2023-01-19T15:46:29.925Z,86.03
2023-01-19T15:48:56.909Z,86.46
2023-01-19T15:51:26.564Z,86.61
2023-01-19T15:53:57.671Z,86.97
2023-01-19T15:56:31.089Z,86.87
2023-01-19T15:58:59.604Z,86.87
2023-01-19T16:01:33.907Z,86.85
2023-01-19T16:04:07.409Z,86.71
2023-01-19T16:06:34.860Z,87.30
2023-01-19T16:09:03.757Z,87.35
2023-01-19T16:11:35.480Z,87.03
2023-01-19T16:14:02.652Z,87.95
2023-01-19T16:16:29.928Z,87.98
2023-01-19T16:18:57.451Z,88.10
2023-01-19T16:21:28.213Z,88.29
2023-01-19T16:23:55.667Z,88.80
2023-01-19T16:26:36.550Z,88.56
2023-01-19T16:29:09.738Z,87.96
2023-01-19T16:31:42.680Z,87.41
2023-01-19T16:34:10.483Z,87.53
2023-01-19T16:36:40.861Z,88.39
2023-01-19T16:39:14.719Z,88.29
2023-01-19T16:41:43.621Z,88.33
2023-01-19T16:44:13.856Z,88.41
2023-01-19T16:46:44.716Z,88.28
2023-01-19T16:49:21.060Z,88.13
2023-01-19T16:51:49.211Z,88.21
2023-01-19T16:54:23.339Z,88.45
2023-01-19T16:56:50.471Z,88.52
2023-01-19T16:59:21.957Z,88.87
2023-01-19T17:01:51.280Z,88.29
2023-01-19T17:04:21.184Z,88.15
2023-01-19T17:06:48.568Z,89.16
2023-01-19T17:09:16.595Z,88.90
2023-01-19T17:11:44.321Z,89.03
2023-01-19T17:14:22.244Z,89.23
2023-01-19T17:16:49.698Z,88.21
2023-01-19T17:19:22.193Z,88.23
2023-01-19T17:21:50.221Z,88.69
2023-01-19T17:24:18.073Z,88.49
2023-01-19T17:26:48.439Z,87.84
2023-01-19T17:29:16.650Z,88.07
2023-01-19T17:31:44.601Z,88.05
2023-01-19T17:34:11.747Z,87.72
2023-01-19T17:36:40.926Z,87.96
2023-01-19T17:39:14.700Z,88.26
2023-01-19T17:41:42.468Z,88.76
2023-01-19T17:44:10.345Z,88.73
2023-01-19T17:46:38.718Z,88.76
2023-01-19T17:49:07.913Z,88.28
2023-01-19T17:51:35.650Z,89.19
2023-01-19T17:54:04.092Z,88.83
2023-01-19T17:56:36.574Z,88.88
2023-01-19T17:59:06.505Z,89.11
2023-01-19T18:01:34.569Z,88.68
2023-01-19T18:04:02.543Z,88.83
2023-01-19T18:06:29.647Z,88.93
2023-01-19T18:08:58.356Z,88.63
2023-01-19T18:11:27.407Z,88.84
2023-01-19T18:13:54.535Z,88.01
2023-01-19T18:16:32.738Z,87.65
2023-01-19T18:18:59.761Z,87.34
2023-01-19T18:21:28.138Z,88.26
2023-01-19T18:24:06.042Z,88.29
2023-01-19T18:26:35.057Z,87.97
2023-01-19T18:29:02.284Z,88.06
2023-01-19T18:31:29.617Z,87.50
2023-01-19T18:33:56.820Z,87.64
2023-01-19T18:36:24.006Z,87.60
2023-01-19T18:38:51.482Z,87.67
2023-01-19T18:41:21.699Z,87.81
2023-01-19T18:43:49.432Z,87.73
2023-01-19T18:46:16.894Z,88.09
2023-01-19T18:48:44.538Z,87.17
2023-01-19T18:51:15.413Z,87.66
2023-01-19T18:53:44.465Z,87.52
2023-01-19T18:56:15.225Z,87.99
2023-01-19T18:58:43.193Z,87.82
2023-01-19T19:01:32.387Z,87.54
2023-01-19T19:04:00.984Z,87.36
2023-01-19T19:06:28.951Z,87.53
2023-01-19T19:08:59.334Z,87.49
2023-01-19T19:11:28.065Z,87.28
2023-01-19T19:14:00.788Z,87.31
2023-01-19T19:16:29.557Z,87.14
2023-01-19T19:18:56.780Z,87.48
2023-01-19T19:21:25.999Z,86.72
2023-01-19T19:23:56.769Z,87.01
2023-01-19T19:26:26.183Z,87.15
2023-01-19T19:28:53.412Z,86.49
2023-01-19T19:31:22.910Z,86.37
2023-01-19T19:33:51.077Z,86.67
2023-01-19T19:36:19.895Z,86.76
2023-01-19T19:38:48.839Z,85.91
2023-01-19T19:41:24.247Z,86.33
2023-01-19T19:43:51.544Z,86.54
2023-01-19T19:46:22.768Z,86.19
2023-01-19T19:48:50.756Z,86.48
2023-01-19T19:51:25.400Z,85.90
2023-01-19T19:53:57.441Z,85.97
2023-01-19T19:56:27.949Z,86.09
2023-01-19T19:58:58.886Z,86.24
2023-01-19T20:01:32.563Z,86.19
2023-01-19T20:04:08.909Z,85.83
2023-01-19T20:06:40.401Z,85.60
2023-01-19T20:09:10.662Z,85.82
2023-01-19T20:11:38.105Z,86.02
2023-01-19T20:14:11.416Z,86.51
2023-01-19T20:16:39.115Z,85.61
2023-01-19T20:19:06.714Z,85.35
2023-01-19T20:21:43.453Z,85.93
2023-01-19T20:24:17.112Z,86.53
2023-01-19T20:26:50.412Z,86.27
2023-01-19T20:29:18.172Z,86.15
2023-01-19T20:31:52.522Z,86.42
2023-01-19T20:34:25.236Z,86.12
2023-01-19T20:36:53.813Z,85.09
2023-01-19T20:39:23.632Z,86.22
2023-01-19T20:41:52.435Z,86.24
2023-01-19T20:44:24.009Z,85.62
2023-01-19T20:46:52.693Z,85.86
2023-01-19T20:49:20.044Z,86.08
2023-01-19T20:51:47.273Z,85.94
2023-01-19T20:54:19.140Z,86.91
2023-01-19T20:56:46.131Z,86.66
2023-01-19T20:59:13.940Z,86.59
2023-01-19T21:01:41.994Z,85.85
2023-01-19T21:04:10.144Z,86.22
2023-01-19T21:06:38.078Z,86.87
2023-01-19T21:09:05.619Z,85.81
2023-01-19T21:11:33.032Z,86.01
2023-01-19T21:14:00.469Z,85.86
2023-01-19T21:16:33.445Z,86.42
2023-01-19T21:19:00.573Z,85.81
2023-01-19T21:21:31.861Z,86.10
2023-01-19T21:24:02.148Z,86.42
2023-01-19T21:26:30.410Z,86.78
2023-01-19T21:29:02.603Z,86.60
2023-01-19T21:31:30.721Z,86.68
2023-01-19T21:33:58.663Z,86.62
2023-01-19T21:36:26.394Z,86.26
2023-01-19T21:38:59.983Z,86.45
2023-01-19T21:41:28.561Z,86.47
2023-01-19T21:43:55.626Z,85.84
2023-01-19T21:46:29.436Z,86.15
2023-01-19T21:49:03.742Z,85.86
2023-01-19T21:51:35.047Z,86.06
2023-01-19T21:54:05.695Z,85.97
2023-01-19T21:56:34.277Z,86.39
2023-01-19T21:59:05.440Z,85.85
2023-01-19T22:01:34.059Z,85.90
2023-01-19T22:04:01.333Z,86.30
2023-01-19T22:06:28.883Z,86.88
2023-01-19T22:08:57.874Z,86.62
2023-01-19T22:11:25.495Z,87.17
2023-01-19T22:13:53.571Z,86.64
2023-01-19T22:16:22.877Z,87.46
2023-01-19T22:18:54.443Z,86.70
2023-01-19T22:21:25.219Z,87.34
2023-01-19T22:23:56.743Z,87.21
2023-01-19T22:26:24.182Z,87.50
2023-01-19T22:29:00.582Z,86.56
2023-01-19T22:31:29.444Z,86.98
2023-01-19T22:33:57.359Z,87.18
2023-01-19T22:36:31.943Z,87.35
2023-01-19T22:39:07.069Z,86.87
2023-01-19T22:41:46.150Z,87.15
2023-01-19T22:44:20.988Z,86.70
2023-01-19T22:46:50.980Z,86.62
2023-01-19T22:49:19.164Z,86.94
2023-01-19T22:51:46.614Z,87.89
2023-01-19T22:54:14.092Z,87.41
2023-01-19T22:56:42.007Z,86.68
2023-01-19T22:59:09.645Z,86.82
2023-01-19T23:01:41.980Z,87.05
2023-01-19T23:04:15.655Z,86.94
2023-01-19T23:06:42.946Z,87.29
2023-01-19T23:09:14.999Z,87.15
2023-01-19T23:11:51.357Z,87.26
2023-01-19T23:14:22.008Z,87.60
2023-01-19T23:16:49.196Z,87.40
2023-01-19T23:19:19.782Z,88.01
2023-01-19T23:21:49.926Z,87.41
2023-01-19T23:24:16.961Z,87.27
2023-01-19T23:26:43.951Z,87.22
2023-01-19T23:29:14.864Z,87.59
2023-01-19T23:31:49.847Z,88.07
2023-01-19T23:34:17.160Z,87.59
2023-01-19T23:36:44.999Z,88.47
2023-01-19T23:39:21.353Z,87.76
2023-01-19T23:41:49.640Z,88.18
2023-01-19T23:44:18.000Z,88.17
2023-01-19T23:46:45.751Z,88.66
2023-01-19T23:49:13.677Z,88.30
2023-01-19T23:51:41.589Z,88.83
2023-01-19T23:54:09.140Z,89.16
2023-01-19T23:56:38.713Z,89.77
2023-01-19T23:59:15.146Z,90.21
